Drummond Island, MI

2:22 AM EST on November 27, 2014 (GMT -0500)
Mackinac Island | Change Station
CLOSE
Current Station
Airport
Location: Mackinac Island,
Elevation: 741 ft
Nearby Weather Stations

Elev 741 ft 45.87 °N, 84.64 °W | Updated 5 minutes ago

Overcast
Overcast
28 °F
Feels Like 22 °F
N
5
Wind Variable Wind from North

Today
High -- | Low -- °F
--% Chance of Precip.
Yesterday
High -- | Low -- °F
Precip. -- in
7:51 AM 4:53 PM
Waxing Crescent, 27% visible
Pressure 30.11 in
Visibility 10.0 miles
Clouds Scattered Clouds 1300 ft
Overcast 1900 ft
Windchill 22 °F
Dew Point 24 °F
Humidity 88%
Rainfall 0.00 in
Snow Depth Not available.
UV 0 out of 12
Pollen .10 out of 12
Air Quality Not available.
Flu Activity Not available.
METAR KMCD 270717Z AUTO 36004KT 10SM SCT013 OVC019 M02/M04 A3011 RMK AO2 T10241042

More Conditions Fewer Conditions

Pressure 30.11 in
Visibility 10.0 miles
Clouds Scattered Clouds 1300 ft
Overcast 1900 ft
Windchill 22 °F
Dew Point 24 °F
Humidity 88%
Rainfall 0.00 in
Snow Depth Not available.
UV 0 out of 12
Pollen .10 out of 12
Air Quality Not available.
Flu Activity Not available.
METAR KMCD 270717Z AUTO 36004KT 10SM SCT013 OVC019 M02/M04 A3011 RMK AO2 T10241042

More Conditions Fewer Conditions

Nowcast | as of 2:00 am EST on November 27, 2014

At 3 am...snow showers. Temperature 24. Light winds. At 5 am...snow showers. Temperature 23. Light winds. At 7 am...snow. Temperature 22. Northwest winds 8 mph. At 9 am...snow. Temperature 21. Northwest winds 10 mph.

×

10-Day Weather Forecast

Almanac

Astronomy

Nov. 27, 2014 Rise Set
Actual Time
Civil Twilight
Nautical Twilight
Astronomical Twilight
Moon
Length of Visible Light
Length of Day
Tomorrow will be .
, % of the Moon is Illuminated

Today's Extremes

State Highs State Lows

Community

WunderPhotos

Upload Photos

1,773,966 photos uploaded!

WunderBlogs® & News

Nearby

Air Quality

  Air Quality AQ Index Pollutant
Not available.

Snow Depth

Station Depth Elevation

Earthquake Activity

City Distance Mag. Time & Date
Minimum magnitude displayed is 2.5.

Coastal Water Temperatures

Place Temperature

Nearby Weather Stations